sensor_id;sensor_type;location;lat;lon;timestamp;pressure;altitude;pressure_sealevel;temperature;humidity
39773;BME280;25451;51.960;6.250;2023-04-08T00:00:45;102072.56;;;8.42;74.62
39773;BME280;25451;51.960;6.250;2023-04-08T00:03:10;102084.69;;;8.48;74.86
39773;BME280;25451;51.960;6.250;2023-04-08T00:05:35;102081.03;;;8.41;75.13
39773;BME280;25451;51.960;6.250;2023-04-08T00:08:01;102084.22;;;8.44;74.69
39773;BME280;25451;51.960;6.250;2023-04-08T00:10:26;102087.78;;;8.38;75.15
39773;BME280;25451;51.960;6.250;2023-04-08T00:12:51;102089.28;;;8.41;75.02
39773;BME280;25451;51.960;6.250;2023-04-08T00:15:17;102093.06;;;8.40;74.68
39773;BME280;25451;51.960;6.250;2023-04-08T00:17:42;102093.03;;;8.33;75.20
39773;BME280;25451;51.960;6.250;2023-04-08T00:20:08;102095.38;;;8.36;74.98
39773;BME280;25451;51.960;6.250;2023-04-08T00:22:34;102085.84;;;8.32;74.68
39773;BME280;25451;51.960;6.250;2023-04-08T00:24:59;102092.19;;;8.32;75.13
39773;BME280;25451;51.960;6.250;2023-04-08T00:27:25;102090.91;;;8.28;74.86
39773;BME280;25451;51.960;6.250;2023-04-08T00:29:51;102074.22;;;8.15;75.25
39773;BME280;25451;51.960;6.250;2023-04-08T00:32:16;102091.28;;;8.25;74.88
39773;BME280;25451;51.960;6.250;2023-04-08T00:34:41;102095.44;;;8.21;75.03
39773;BME280;25451;51.960;6.250;2023-04-08T00:37:07;102113.28;;;8.25;75.14
39773;BME280;25451;51.960;6.250;2023-04-08T00:39:32;102096.03;;;8.17;74.90
39773;BME280;25451;51.960;6.250;2023-04-08T00:41:58;102103.03;;;8.19;75.30
39773;BME280;25451;51.960;6.250;2023-04-08T00:44:23;102103.25;;;8.18;75.20
39773;BME280;25451;51.960;6.250;2023-04-08T00:46:48;102091.13;;;8.12;74.80
39773;BME280;25451;51.960;6.250;2023-04-08T00:49:14;102101.72;;;8.15;75.21
39773;BME280;25451;51.960;6.250;2023-04-08T00:51:39;102081.97;;;8.05;75.26
39773;BME280;25451;51.960;6.250;2023-04-08T00:54:05;102107.22;;;8.15;74.98
39773;BME280;25451;51.960;6.250;2023-04-08T00:56:31;102110.84;;;8.16;75.28
39773;BME280;25451;51.960;6.250;2023-04-08T00:58:59;102111.00;;;8.14;75.15
39773;BME280;25451;51.960;6.250;2023-04-08T01:01:49;102109.31;;;8.13;75.08
39773;BME280;25451;51.960;6.250;2023-04-08T01:07:10;102100.78;;;8.02;75.50
39773;BME280;25451;51.960;6.250;2023-04-08T01:09:38;102107.75;;;8.04;75.46
39773;BME280;25451;51.960;6.250;2023-04-08T01:12:08;102115.63;;;8.07;74.95
39773;BME280;25451;51.960;6.250;2023-04-08T01:14:39;102118.09;;;8.02;75.41
39773;BME280;25451;51.960;6.250;2023-04-08T01:17:07;102128.72;;;8.05;75.26
39773;BME280;25451;51.960;6.250;2023-04-08T01:19:37;102090.41;;;7.83;75.46
39773;BME280;25451;51.960;6.250;2023-04-08T01:22:26;102108.28;;;7.93;75.25
39773;BME280;25451;51.960;6.250;2023-04-08T01:25:04;102115.97;;;7.98;74.98
39773;BME280;25451;51.960;6.250;2023-04-08T01:27:31;102113.78;;;7.93;75.67
39773;BME280;25451;51.960;6.250;2023-04-08T01:29:58;102114.00;;;7.92;75.64
39773;BME280;25451;51.960;6.250;2023-04-08T01:32:25;102117.31;;;7.87;75.32
39773;BME280;25451;51.960;6.250;2023-04-08T01:34:52;102105.22;;;7.82;75.36
39773;BME280;25451;51.960;6.250;2023-04-08T01:37:19;102110.31;;;7.85;75.46
39773;BME280;25451;51.960;6.250;2023-04-08T01:39:46;102107.13;;;7.81;75.70
39773;BME280;25451;51.960;6.250;2023-04-08T01:42:12;102115.16;;;7.83;75.39
39773;BME280;25451;51.960;6.250;2023-04-08T01:44:39;102124.06;;;7.85;75.45
39773;BME280;25451;51.960;6.250;2023-04-08T01:47:06;102124.25;;;7.83;75.96
39773;BME280;25451;51.960;6.250;2023-04-08T01:49:33;102123.53;;;7.75;75.54
39773;BME280;25451;51.960;6.250;2023-04-08T01:51:59;102119.66;;;7.69;75.46
39773;BME280;25451;51.960;6.250;2023-04-08T01:54:24;102130.91;;;7.74;75.76
39773;BME280;25451;51.960;6.250;2023-04-08T01:56:50;102123.44;;;7.68;75.54
39773;BME280;25451;51.960;6.250;2023-04-08T01:59:20;102130.66;;;7.69;75.55
39773;BME280;25451;51.960;6.250;2023-04-08T02:01:47;102126.59;;;7.65;75.86
39773;BME280;25451;51.960;6.250;2023-04-08T02:04:13;102123.19;;;7.63;76.17
39773;BME280;25451;51.960;6.250;2023-04-08T02:06:38;102126.88;;;7.55;75.67
39773;BME280;25451;51.960;6.250;2023-04-08T02:09:03;102120.72;;;7.53;75.45
39773;BME280;25451;51.960;6.250;2023-04-08T02:11:29;102107.59;;;7.49;75.63
39773;BME280;25451;51.960;6.250;2023-04-08T02:13:56;102102.47;;;7.46;75.46
39773;BME280;25451;51.960;6.250;2023-04-08T02:16:29;102129.56;;;7.49;75.94
39773;BME280;25451;51.960;6.250;2023-04-08T02:19:01;102123.59;;;7.45;75.53
39773;BME280;25451;51.960;6.250;2023-04-08T02:21:37;102116.13;;;7.39;75.64
39773;BME280;25451;51.960;6.250;2023-04-08T02:24:07;102126.44;;;7.37;75.51
39773;BME280;25451;51.960;6.250;2023-04-08T02:26:35;102127.41;;;7.30;76.20
39773;BME280;25451;51.960;6.250;2023-04-08T02:29:04;102130.38;;;7.28;75.44
39773;BME280;25451;51.960;6.250;2023-04-08T02:31:30;102132.44;;;7.26;76.19
39773;BME280;25451;51.960;6.250;2023-04-08T02:33:57;102121.38;;;7.20;75.50
39773;BME280;25451;51.960;6.250;2023-04-08T02:36:23;102127.22;;;7.17;75.42
39773;BME280;25451;51.960;6.250;2023-04-08T02:38:50;102128.66;;;7.13;75.57
39773;BME280;25451;51.960;6.250;2023-04-08T02:41:15;102129.72;;;7.12;75.65
39773;BME280;25451;51.960;6.250;2023-04-08T02:43:41;102127.34;;;7.09;76.04
39773;BME280;25451;51.960;6.250;2023-04-08T02:46:07;102127.06;;;7.04;75.58
39773;BME280;25451;51.960;6.250;2023-04-08T02:48:33;102120.63;;;6.97;75.47
39773;BME280;25451;51.960;6.250;2023-04-08T02:50:58;102123.09;;;6.92;75.91
39773;BME280;25451;51.960;6.250;2023-04-08T02:53:23;102137.09;;;6.97;76.17
39773;BME280;25451;51.960;6.250;2023-04-08T02:55:49;102121.28;;;6.84;75.27
39773;BME280;25451;51.960;6.250;2023-04-08T02:58:14;102128.03;;;6.82;76.00
39773;BME280;25451;51.960;6.250;2023-04-08T03:00:40;102146.16;;;6.83;76.11
39773;BME280;25451;51.960;6.250;2023-04-08T03:03:05;102144.19;;;6.77;75.55
39773;BME280;25451;51.960;6.250;2023-04-08T03:05:31;102134.16;;;6.69;75.87
39773;BME280;25451;51.960;6.250;2023-04-08T03:07:57;102143.41;;;6.68;75.88
39773;BME280;25451;51.960;6.250;2023-04-08T03:10:23;102148.81;;;6.61;75.87
39773;BME280;25451;51.960;6.250;2023-04-08T03:12:48;102139.81;;;6.53;75.84
39773;BME280;25451;51.960;6.250;2023-04-08T03:15:13;102152.09;;;6.57;75.74
39773;BME280;25451;51.960;6.250;2023-04-08T03:17:39;102155.59;;;6.51;75.40
39773;BME280;25451;51.960;6.250;2023-04-08T03:20:04;102149.63;;;6.47;75.58
39773;BME280;25451;51.960;6.250;2023-04-08T03:22:31;102141.09;;;6.42;75.46
39773;BME280;25451;51.960;6.250;2023-04-08T03:24:57;102141.28;;;6.41;76.25
39773;BME280;25451;51.960;6.250;2023-04-08T03:27:22;102150.94;;;6.37;75.37
39773;BME280;25451;51.960;6.250;2023-04-08T03:29:48;102140.09;;;6.21;75.72
39773;BME280;25451;51.960;6.250;2023-04-08T03:32:13;102153.22;;;6.25;75.83
39773;BME280;25451;51.960;6.250;2023-04-08T03:34:38;102149.00;;;6.23;75.68
39773;BME280;25451;51.960;6.250;2023-04-08T03:37:04;102159.97;;;6.23;75.50
39773;BME280;25451;51.960;6.250;2023-04-08T03:39:29;102126.41;;;5.98;75.86
39773;BME280;25451;51.960;6.250;2023-04-08T03:41:55;102161.25;;;6.12;76.00
39773;BME280;25451;51.960;6.250;2023-04-08T03:44:21;102160.56;;;6.10;75.69
39773;BME280;25451;51.960;6.250;2023-04-08T03:46:46;102147.94;;;6.01;75.57
39773;BME280;25451;51.960;6.250;2023-04-08T03:49:11;102151.56;;;6.02;75.87
39773;BME280;25451;51.960;6.250;2023-04-08T03:51:36;102157.75;;;5.96;75.70
39773;BME280;25451;51.960;6.250;2023-04-08T03:54:02;102165.78;;;5.97;75.54
39773;BME280;25451;51.960;6.250;2023-04-08T03:56:27;102157.16;;;5.85;75.74
39773;BME280;25451;51.960;6.250;2023-04-08T03:58:52;102165.19;;;5.87;75.88
39773;BME280;25451;51.960;6.250;2023-04-08T04:01:18;102157.34;;;5.84;75.72
39773;BME280;25451;51.960;6.250;2023-04-08T04:03:43;102165.56;;;5.84;75.79
39773;BME280;25451;51.960;6.250;2023-04-08T04:06:08;102175.16;;;5.80;75.75
39773;BME280;25451;51.960;6.250;2023-04-08T04:08:34;102154.69;;;5.68;75.67
39773;BME280;25451;51.960;6.250;2023-04-08T04:10:59;102169.03;;;5.70;75.59
39773;BME280;25451;51.960;6.250;2023-04-08T04:13:25;102166.84;;;5.65;75.69
39773;BME280;25451;51.960;6.250;2023-04-08T04:15:50;102162.41;;;5.56;75.71
39773;BME280;25451;51.960;6.250;2023-04-08T04:18:15;102184.66;;;5.61;75.47
39773;BME280;25451;51.960;6.250;2023-04-08T04:20:41;102192.34;;;5.58;75.60
39773;BME280;25451;51.960;6.250;2023-04-08T04:23:07;102190.19;;;5.53;75.34
39773;BME280;25451;51.960;6.250;2023-04-08T04:25:33;102197.06;;;5.49;75.64
39773;BME280;25451;51.960;6.250;2023-04-08T04:27:58;102189.69;;;5.42;75.56
39773;BME280;25451;51.960;6.250;2023-04-08T04:30:24;102183.94;;;5.37;75.65
39773;BME280;25451;51.960;6.250;2023-04-08T04:32:50;102195.56;;;5.39;75.81
39773;BME280;25451;51.960;6.250;2023-04-08T04:35:15;102200.34;;;5.37;75.35
39773;BME280;25451;51.960;6.250;2023-04-08T04:37:40;102192.16;;;5.29;75.46
39773;BME280;25451;51.960;6.250;2023-04-08T04:40:06;102200.00;;;5.32;75.73
39773;BME280;25451;51.960;6.250;2023-04-08T04:42:31;102205.19;;;5.27;75.36
39773;BME280;25451;51.960;6.250;2023-04-08T04:44:57;102208.94;;;5.26;75.31
39773;BME280;25451;51.960;6.250;2023-04-08T04:47:23;102204.16;;;5.20;75.51
39773;BME280;25451;51.960;6.250;2023-04-08T04:49:48;102218.53;;;5.22;75.37
39773;BME280;25451;51.960;6.250;2023-04-08T04:52:13;102215.13;;;5.20;75.79
39773;BME280;25451;51.960;6.250;2023-04-08T04:54:39;102208.28;;;5.16;75.68
39773;BME280;25451;51.960;6.250;2023-04-08T04:57:04;102174.50;;;4.92;75.69
39773;BME280;25451;51.960;6.250;2023-04-08T04:59:30;102216.53;;;5.07;75.38
39773;BME280;25451;51.960;6.250;2023-04-08T05:01:55;102219.06;;;5.09;75.57
39773;BME280;25451;51.960;6.250;2023-04-08T05:04:24;102224.06;;;5.05;75.25
39773;BME280;25451;51.960;6.250;2023-04-08T05:06:49;102215.00;;;4.97;75.54
39773;BME280;25451;51.960;6.250;2023-04-08T05:09:15;102220.66;;;4.95;75.14
39773;BME280;25451;51.960;6.250;2023-04-08T05:11:40;102225.13;;;4.96;75.62
39773;BME280;25451;51.960;6.250;2023-04-08T05:14:06;102220.84;;;4.94;75.62
39773;BME280;25451;51.960;6.250;2023-04-08T05:16:32;102216.91;;;4.88;75.38
39773;BME280;25451;51.960;6.250;2023-04-08T05:18:57;102225.81;;;4.90;75.47
39773;BME280;25451;51.960;6.250;2023-04-08T05:21:23;102229.25;;;4.84;75.59
39773;BME280;25451;51.960;6.250;2023-04-08T05:23:48;102228.56;;;4.82;75.75
39773;BME280;25451;51.960;6.250;2023-04-08T05:26:17;102227.88;;;4.80;75.06
39773;BME280;25451;51.960;6.250;2023-04-08T05:28:42;102239.50;;;4.82;75.44
39773;BME280;25451;51.960;6.250;2023-04-08T05:31:08;102230.09;;;4.77;75.37
39773;BME280;25451;51.960;6.250;2023-04-08T05:33:33;102228.72;;;4.73;75.05
39773;BME280;25451;51.960;6.250;2023-04-08T05:35:58;102245.47;;;4.78;75.37
39773;BME280;25451;51.960;6.250;2023-04-08T05:38:24;102245.31;;;4.71;75.33
39773;BME280;25451;51.960;6.250;2023-04-08T05:40:49;102243.59;;;4.70;75.38
39773;BME280;25451;51.960;6.250;2023-04-08T05:43:15;102243.09;;;4.67;75.43
39773;BME280;25451;51.960;6.250;2023-04-08T05:45:40;102240.72;;;4.64;75.24
39773;BME280;25451;51.960;6.250;2023-04-08T05:48:06;102237.78;;;4.65;75.32
39773;BME280;25451;51.960;6.250;2023-04-08T05:50:34;102236.25;;;4.63;75.23
39773;BME280;25451;51.960;6.250;2023-04-08T05:52:59;102238.13;;;4.70;75.30
39773;BME280;25451;51.960;6.250;2023-04-08T05:55:24;102248.91;;;4.72;75.16
39773;BME280;25451;51.960;6.250;2023-04-08T05:57:50;102247.03;;;4.72;74.83
39773;BME280;25451;51.960;6.250;2023-04-08T06:00:15;102254.69;;;4.77;74.48
39773;BME280;25451;51.960;6.250;2023-04-08T06:02:41;102269.41;;;4.84;74.64
39773;BME280;25451;51.960;6.250;2023-04-08T06:05:06;102265.63;;;4.85;74.68
39773;BME280;25451;51.960;6.250;2023-04-08T06:07:32;102269.72;;;4.89;74.47
39773;BME280;25451;51.960;6.250;2023-04-08T06:09:57;102258.09;;;4.87;74.45
39773;BME280;25451;51.960;6.250;2023-04-08T06:12:23;102260.00;;;4.86;74.27
39773;BME280;25451;51.960;6.250;2023-04-08T06:14:52;102276.75;;;4.99;74.47
39773;BME280;25451;51.960;6.250;2023-04-08T06:17:19;102275.72;;;5.00;74.59
39773;BME280;25451;51.960;6.250;2023-04-08T06:19:44;102290.41;;;5.07;74.37
39773;BME280;25451;51.960;6.250;2023-04-08T06:22:09;102283.91;;;5.09;74.23
39773;BME280;25451;51.960;6.250;2023-04-08T06:24:35;102286.47;;;5.10;74.29
39773;BME280;25451;51.960;6.250;2023-04-08T06:27:00;102274.69;;;5.01;74.27
39773;BME280;25451;51.960;6.250;2023-04-08T06:29:25;102274.50;;;5.03;74.55
39773;BME280;25451;51.960;6.250;2023-04-08T06:31:50;102291.75;;;5.12;74.43
39773;BME280;25451;51.960;6.250;2023-04-08T06:34:16;102295.38;;;5.12;74.81
39773;BME280;25451;51.960;6.250;2023-04-08T06:36:41;102292.97;;;5.09;74.96
39773;BME280;25451;51.960;6.250;2023-04-08T06:39:07;102294.88;;;5.09;74.54
39773;BME280;25451;51.960;6.250;2023-04-08T06:41:32;102301.69;;;5.13;74.31
39773;BME280;25451;51.960;6.250;2023-04-08T06:43:58;102298.09;;;5.12;74.24
39773;BME280;25451;51.960;6.250;2023-04-08T06:46:23;102306.81;;;5.16;74.56
39773;BME280;25451;51.960;6.250;2023-04-08T06:48:48;102318.44;;;5.18;74.80
39773;BME280;25451;51.960;6.250;2023-04-08T06:51:14;102313.13;;;5.24;74.75
39773;BME280;25451;51.960;6.250;2023-04-08T06:53:39;102306.13;;;5.22;74.40
39773;BME280;25451;51.960;6.250;2023-04-08T06:56:05;102312.44;;;5.30;74.39
39773;BME280;25451;51.960;6.250;2023-04-08T06:58:30;102325.94;;;5.40;74.59
39773;BME280;25451;51.960;6.250;2023-04-08T07:00:55;102330.69;;;5.46;74.18
39773;BME280;25451;51.960;6.250;2023-04-08T07:03:22;102347.28;;;5.52;73.92
39773;BME280;25451;51.960;6.250;2023-04-08T07:05:47;102329.31;;;5.50;73.89
39773;BME280;25451;51.960;6.250;2023-04-08T07:08:12;102344.38;;;5.54;74.03
39773;BME280;25451;51.960;6.250;2023-04-08T07:10:38;102348.81;;;5.63;73.97
39773;BME280;25451;51.960;6.250;2023-04-08T07:13:03;102301.28;;;5.40;74.24
39773;BME280;25451;51.960;6.250;2023-04-08T07:15:29;102343.50;;;5.69;73.95
39773;BME280;25451;51.960;6.250;2023-04-08T07:17:54;102355.81;;;5.73;74.07
39773;BME280;25451;51.960;6.250;2023-04-08T07:20:24;102348.94;;;5.77;74.18
39773;BME280;25451;51.960;6.250;2023-04-08T07:22:50;102353.03;;;5.81;73.99
39773;BME280;25451;51.960;6.250;2023-04-08T07:25:16;102358.72;;;5.88;74.12
39773;BME280;25451;51.960;6.250;2023-04-08T07:27:41;102357.13;;;5.94;74.06
39773;BME280;25451;51.960;6.250;2023-04-08T07:30:07;102358.00;;;5.94;74.03
39773;BME280;25451;51.960;6.250;2023-04-08T07:32:33;102372.69;;;6.01;74.27
39773;BME280;25451;51.960;6.250;2023-04-08T07:34:59;102354.19;;;6.03;74.25
39773;BME280;25451;51.960;6.250;2023-04-08T07:37:25;102360.66;;;6.10;74.04
39773;BME280;25451;51.960;6.250;2023-04-08T07:39:51;102360.97;;;6.15;73.83
39773;BME280;25451;51.960;6.250;2023-04-08T07:42:16;102367.47;;;6.22;74.16
39773;BME280;25451;51.960;6.250;2023-04-08T07:44:42;102373.09;;;6.29;74.19
39773;BME280;25451;51.960;6.250;2023-04-08T07:47:08;102371.53;;;6.34;73.89
39773;BME280;25451;51.960;6.250;2023-04-08T07:49:33;102386.19;;;6.41;74.47
39773;BME280;25451;51.960;6.250;2023-04-08T07:51:58;102367.88;;;6.42;74.15
39773;BME280;25451;51.960;6.250;2023-04-08T07:54:24;102393.03;;;6.53;74.09
39773;BME280;25451;51.960;6.250;2023-04-08T07:56:49;102385.47;;;6.55;73.96
39773;BME280;25451;51.960;6.250;2023-04-08T07:59:14;102390.91;;;6.63;74.47
39773;BME280;25451;51.960;6.250;2023-04-08T08:01:39;102396.34;;;6.72;73.78
39773;BME280;25451;51.960;6.250;2023-04-08T08:04:05;102394.56;;;6.79;74.26
39773;BME280;25451;51.960;6.250;2023-04-08T08:06:30;102386.94;;;6.89;73.90
39773;BME280;25451;51.960;6.250;2023-04-08T08:08:59;102383.41;;;7.03;73.61
39773;BME280;25451;51.960;6.250;2023-04-08T08:11:25;102373.03;;;7.13;73.79
39773;BME280;25451;51.960;6.250;2023-04-08T08:13:53;102374.94;;;7.27;73.37
39773;BME280;25451;51.960;6.250;2023-04-08T08:16:19;102371.78;;;7.38;73.62
39773;BME280;25451;51.960;6.250;2023-04-08T08:18:44;102362.59;;;7.45;73.22
39773;BME280;25451;51.960;6.250;2023-04-08T08:21:10;102387.56;;;7.73;73.08
39773;BME280;25451;51.960;6.250;2023-04-08T08:23:35;102381.22;;;7.87;73.02
39773;BME280;25451;51.960;6.250;2023-04-08T08:26:06;102392.97;;;8.10;72.78
39773;BME280;25451;51.960;6.250;2023-04-08T08:28:36;102385.59;;;8.25;72.86
39773;BME280;25451;51.960;6.250;2023-04-08T08:31:01;102404.28;;;8.45;72.80
39773;BME280;25451;51.960;6.250;2023-04-08T08:33:27;102403.56;;;8.57;72.92
39773;BME280;25451;51.960;6.250;2023-04-08T08:35:53;102409.31;;;8.77;72.80
39773;BME280;25451;51.960;6.250;2023-04-08T08:38:18;102410.59;;;8.95;72.47
39773;BME280;25451;51.960;6.250;2023-04-08T08:40:44;102405.03;;;9.10;72.58
39773;BME280;25451;51.960;6.250;2023-04-08T08:43:10;102409.41;;;9.26;72.33
39773;BME280;25451;51.960;6.250;2023-04-08T08:45:39;102421.91;;;9.49;72.43
39773;BME280;25451;51.960;6.250;2023-04-08T08:48:06;102420.56;;;9.66;72.24
39773;BME280;25451;51.960;6.250;2023-04-08T08:50:32;102419.63;;;9.80;72.36
39773;BME280;25451;51.960;6.250;2023-04-08T08:52:58;102418.06;;;9.99;72.45
39773;BME280;25451;51.960;6.250;2023-04-08T08:55:23;102404.38;;;10.12;72.59
39773;BME280;25451;51.960;6.250;2023-04-08T08:57:51;102418.94;;;10.34;72.37
39773;BME280;25451;51.960;6.250;2023-04-08T09:00:16;102409.22;;;10.44;72.30
39773;BME280;25451;51.960;6.250;2023-04-08T09:02:42;102411.44;;;10.62;72.25
39773;BME280;25451;51.960;6.250;2023-04-08T09:05:08;102408.72;;;10.75;72.23
39773;BME280;25451;51.960;6.250;2023-04-08T09:07:37;102396.41;;;10.84;71.76
39773;BME280;25451;51.960;6.250;2023-04-08T09:10:06;102413.03;;;11.04;71.94
39773;BME280;25451;51.960;6.250;2023-04-08T09:12:31;102416.06;;;11.15;72.03
39773;BME280;25451;51.960;6.250;2023-04-08T09:15:07;102424.81;;;11.32;71.74
39773;BME280;25451;51.960;6.250;2023-04-08T09:17:35;102391.63;;;11.32;71.77
39773;BME280;25451;51.960;6.250;2023-04-08T09:20:09;102413.13;;;11.56;71.71
39773;BME280;25451;51.960;6.250;2023-04-08T09:22:57;102409.72;;;11.74;71.47
39773;BME280;25451;51.960;6.250;2023-04-08T09:25:24;102412.69;;;11.92;71.48
39773;BME280;25451;51.960;6.250;2023-04-08T09:27:50;102411.41;;;12.01;71.46
39773;BME280;25451;51.960;6.250;2023-04-08T09:30:17;102425.19;;;12.20;71.60
39773;BME280;25451;51.960;6.250;2023-04-08T09:32:49;102422.19;;;12.35;71.66
39773;BME280;25451;51.960;6.250;2023-04-08T09:35:17;102412.38;;;12.39;71.37
39773;BME280;25451;51.960;6.250;2023-04-08T09:37:42;102425.50;;;12.57;71.22
39773;BME280;25451;51.960;6.250;2023-04-08T09:40:08;102424.19;;;12.66;71.25
39773;BME280;25451;51.960;6.250;2023-04-08T09:42:35;102429.25;;;12.82;71.03
39773;BME280;25451;51.960;6.250;2023-04-08T09:45:04;102431.97;;;12.95;71.24
39773;BME280;25451;51.960;6.250;2023-04-08T09:47:55;102437.22;;;13.09;70.57
39773;BME280;25451;51.960;6.250;2023-04-08T09:50:26;102431.84;;;13.21;70.26
39773;BME280;25451;51.960;6.250;2023-04-08T09:53:13;102436.88;;;13.30;70.16
39773;BME280;25451;51.960;6.250;2023-04-08T09:55:46;102449.22;;;13.35;70.36
39773;BME280;25451;51.960;6.250;2023-04-08T09:58:15;102448.38;;;13.34;70.14
39773;BME280;25451;51.960;6.250;2023-04-08T10:00:46;102436.88;;;13.30;70.02
39773;BME280;25451;51.960;6.250;2023-04-08T10:05:51;102440.09;;;13.27;70.10
39773;BME280;25451;51.960;6.250;2023-04-08T10:08:18;102439.47;;;13.25;69.74
39773;BME280;25451;51.960;6.250;2023-04-08T10:10:43;102444.56;;;13.28;69.97
39773;BME280;25451;51.960;6.250;2023-04-08T10:13:09;102442.66;;;13.29;69.80
39773;BME280;25451;51.960;6.250;2023-04-08T10:15:36;102443.72;;;13.28;69.33
39773;BME280;25451;51.960;6.250;2023-04-08T10:20:48;102426.09;;;13.16;69.37
39773;BME280;25451;51.960;6.250;2023-04-08T10:23:17;102436.06;;;13.23;68.96
39773;BME280;25451;51.960;6.250;2023-04-08T10:25:46;102428.16;;;13.27;69.11
39773;BME280;25451;51.960;6.250;2023-04-08T10:30:45;102439.03;;;13.28;68.87
39773;BME280;25451;51.960;6.250;2023-04-08T10:35:46;102410.75;;;13.13;68.37
39773;BME280;25451;51.960;6.250;2023-04-08T10:38:13;102435.00;;;13.24;68.13
39773;BME280;25451;51.960;6.250;2023-04-08T10:40:40;102433.28;;;13.23;68.12
39773;BME280;25451;51.960;6.250;2023-04-08T10:43:08;102424.56;;;13.20;67.91
39773;BME280;25451;51.960;6.250;2023-04-08T10:45:34;102430.97;;;13.20;67.74
39773;BME280;25451;51.960;6.250;2023-04-08T10:50:37;102435.44;;;13.21;67.59
39773;BME280;25451;51.960;6.250;2023-04-08T10:53:04;102433.91;;;13.25;67.22
39773;BME280;25451;51.960;6.250;2023-04-08T10:55:30;102423.28;;;13.22;67.08
39773;BME280;25451;51.960;6.250;2023-04-08T10:58:04;102439.00;;;13.35;67.55
39773;BME280;25451;51.960;6.250;2023-04-08T11:00:38;102422.75;;;13.39;67.17
39773;BME280;25451;51.960;6.250;2023-04-08T11:03:09;102439.75;;;13.49;67.42
39773;BME280;25451;51.960;6.250;2023-04-08T11:05:35;102443.13;;;13.51;67.05
39773;BME280;25451;51.960;6.250;2023-04-08T11:08:03;102429.09;;;13.46;67.06
39773;BME280;25451;51.960;6.250;2023-04-08T11:10:28;102439.97;;;13.47;66.99
39773;BME280;25451;51.960;6.250;2023-04-08T11:12:54;102427.38;;;13.45;66.84
39773;BME280;25451;51.960;6.250;2023-04-08T11:15:23;102421.88;;;13.38;66.53
39773;BME280;25451;51.960;6.250;2023-04-08T11:17:50;102427.63;;;13.43;66.67
39773;BME280;25451;51.960;6.250;2023-04-08T11:20:16;102424.00;;;13.43;66.45
39773;BME280;25451;51.960;6.250;2023-04-08T11:22:43;102429.53;;;13.43;66.60
39773;BME280;25451;51.960;6.250;2023-04-08T11:25:09;102420.59;;;13.41;66.49
39773;BME280;25451;51.960;6.250;2023-04-08T11:27:36;102417.84;;;13.34;66.25
39773;BME280;25451;51.960;6.250;2023-04-08T11:30:02;102421.72;;;13.33;66.38
39773;BME280;25451;51.960;6.250;2023-04-08T11:32:29;102423.00;;;13.30;66.09
39773;BME280;25451;51.960;6.250;2023-04-08T11:34:55;102415.97;;;13.28;66.17
39773;BME280;25451;51.960;6.250;2023-04-08T11:37:20;102423.69;;;13.26;65.91
39773;BME280;25451;51.960;6.250;2023-04-08T11:39:46;102417.75;;;13.22;66.03
39773;BME280;25451;51.960;6.250;2023-04-08T11:42:29;102424.78;;;13.25;65.91
39773;BME280;25451;51.960;6.250;2023-04-08T11:44:54;102425.81;;;13.24;65.50
39773;BME280;25451;51.960;6.250;2023-04-08T11:47:20;102431.34;;;13.30;65.40
39773;BME280;25451;51.960;6.250;2023-04-08T11:49:46;102428.16;;;13.27;65.55
39773;BME280;25451;51.960;6.250;2023-04-08T11:52:12;102432.38;;;13.29;65.08
39773;BME280;25451;51.960;6.250;2023-04-08T11:54:40;102439.22;;;13.34;65.11
39773;BME280;25451;51.960;6.250;2023-04-08T11:57:06;102430.28;;;13.32;65.24
39773;BME280;25451;51.960;6.250;2023-04-08T11:59:34;102439.63;;;13.37;65.44
39773;BME280;25451;51.960;6.250;2023-04-08T12:01:59;102429.81;;;13.35;65.29
39773;BME280;25451;51.960;6.250;2023-04-08T12:04:26;102415.59;;;13.24;65.00
39773;BME280;25451;51.960;6.250;2023-04-08T12:06:51;102440.19;;;13.46;65.19
39773;BME280;25451;51.960;6.250;2023-04-08T12:09:16;102433.56;;;13.47;64.79
39773;BME280;25451;51.960;6.250;2023-04-08T12:11:41;102431.41;;;13.49;64.70
39773;BME280;25451;51.960;6.250;2023-04-08T12:14:07;102441.38;;;13.56;64.57
39773;BME280;25451;51.960;6.250;2023-04-08T12:16:32;102437.16;;;13.54;64.53
39773;BME280;25451;51.960;6.250;2023-04-08T12:18:57;102432.66;;;13.53;64.46
39773;BME280;25451;51.960;6.250;2023-04-08T12:21:23;102425.63;;;13.50;64.39
39773;BME280;25451;51.960;6.250;2023-04-08T12:23:48;102432.16;;;13.62;64.60
39773;BME280;25451;51.960;6.250;2023-04-08T12:26:13;102404.28;;;13.51;64.21
39773;BME280;25451;51.960;6.250;2023-04-08T12:28:39;102434.72;;;13.64;64.14
39773;BME280;25451;51.960;6.250;2023-04-08T12:31:04;102435.97;;;13.68;64.26
39773;BME280;25451;51.960;6.250;2023-04-08T12:33:30;102434.44;;;13.72;64.31
39773;BME280;25451;51.960;6.250;2023-04-08T12:35:55;102413.97;;;13.66;64.27
39773;BME280;25451;51.960;6.250;2023-04-08T12:38:23;102431.88;;;13.70;64.23
39773;BME280;25451;51.960;6.250;2023-04-08T12:40:48;102438.91;;;13.73;64.32
39773;BME280;25451;51.960;6.250;2023-04-08T12:43:13;102424.00;;;13.67;64.00
39773;BME280;25451;51.960;6.250;2023-04-08T12:45:39;102432.28;;;13.74;64.14
39773;BME280;25451;51.960;6.250;2023-04-08T12:48:04;102429.72;;;13.72;64.13
39773;BME280;25451;51.960;6.250;2023-04-08T12:50:29;102423.34;;;13.72;63.91
39773;BME280;25451;51.960;6.250;2023-04-08T12:52:55;102430.75;;;13.78;64.10
39773;BME280;25451;51.960;6.250;2023-04-08T12:55:20;102419.47;;;13.73;63.90
39773;BME280;25451;51.960;6.250;2023-04-08T12:57:49;102441.56;;;13.86;63.75
39773;BME280;25451;51.960;6.250;2023-04-08T13:00:14;102430.47;;;13.86;63.86
39773;BME280;25451;51.960;6.250;2023-04-08T13:02:39;102441.97;;;13.89;63.56
39773;BME280;25451;51.960;6.250;2023-04-08T13:05:06;102437.69;;;13.87;63.86
39773;BME280;25451;51.960;6.250;2023-04-08T13:07:31;102438.56;;;13.87;63.62
39773;BME280;25451;51.960;6.250;2023-04-08T13:09:56;102435.06;;;13.74;63.47